Terminal Aerodrome Forecast
Issued by NWS

Home | Current Version | Previous Version | Text Only | Print | Product List | Glossary On
Versions: 1 2 3 4 5 6 7 8 9 10 11 12
241
FTPA31 PHFO 141735
TAFHJR
TAF
PHJR 141735Z 1418/1518 VRB03KT P6SM FEW040
     FM142000 12008G15KT P6SM SCT040
     FM150500 VRB03KT P6SM FEW040=

USA.gov is the U.S. government's official web portal to all federal, state and local government web resources and services.